Brevard, North Carolina
Current Conditions -  °F | °C
As of 3:54 PM on Saturday 22 Nov 2014 (Local Time) from KAVL Reporting Station
Clear Clear  
Wind Chill: 54°   Ceiling: Unl
Heat Index: 54°   Visibility: 10mi
Dew Point: 27°   Wind: 15mph
Humidity: 35%   Direction: 180°S
Pressure: 30.31"   Gusts: NA
Location:  35.23°N, 82.73°W
Report Text: KAVL 222054Z 18013KT 10SM CLR 12/M03 A3031 RMK AO2 SLP270 T01221028 56018
Loading
Personal Weather Stations






























Interactive Weather Map New forecast layout! Learn more

10-Day Weather Forecast

Advertisements
Track Severe Weather on mobile